Terminal Aerodrome Forecast
Issued by NWS

Current Version | Previous Version | Text Only | Print | Product List | Glossary Off
Versions: 1 2 3 4 5 6 7 8 9 10 11 12 13 14 15 16 17 18 19 20 21 22

766
FTUS41 KRLX 222340
TAFCKB
TAF
KCKB 222340Z 2300/2324 36004KT P6SM VCSH BKN040
     FM230400 02002KT 6SM BR BKN035
     FM230700 00000KT 3SM BR SCT003 BKN015
     FM231200 00000KT P6SM BKN030
     FM231300 35003KT P6SM BKN040
     FM231800 35005KT P6SM SCT045
     FM231900 35006KT P6SM VCSH BKN045=

USA.gov is the U.S. government's official web portal to all federal, state and local government web resources and services.